Time;durP1;ratioP1;P1;durP2;ratioP2;P2;SDS_P1;SDS_P2;PMS_P1;PMS_P2;Temp;Humidity;BMP_temperature;BMP_pressure;BME280_temperature;BME280_humidity;BME280_pressure;Samples;Min_cycle;Max_cycle;Signal;HPM_P1;HPM_P2
2023/04/15 00:01:53;;;;;;;2.73;2.10;;;;;;;;;;5019089;28;20210;-26
2023/04/15 00:04:20;;;;;;;3.20;2.07;;;;;;;;;;5036110;28;20222;-28
2023/04/15 00:06:51;;;;;;;2.30;2.10;;;;;;;;;;5031936;28;20226;-29
2023/04/15 00:09:19;;;;;;;4.83;2.47;;;;;;;;;;5022872;28;20211;-27
2023/04/15 00:11:46;;;;;;;3.03;2.00;;;;;;;;;;5026366;28;20205;-29
2023/04/15 00:14:14;;;;;;;3.60;2.50;;;;;;;;;;5028813;28;20607;-26
2023/04/15 00:16:42;;;;;;;3.83;2.30;;;;;;;;;;5020851;28;20277;-27
2023/04/15 00:19:10;;;;;;;4.10;2.37;;;;;;;;;;5033931;28;20214;-29
2023/04/15 00:21:37;;;;;;;3.17;2.20;;;;;;;;;;5027950;28;20217;-29
2023/04/15 00:24:04;;;;;;;2.40;2.03;;;;;;;;;;5028005;28;20219;-29
2023/04/15 00:26:32;;;;;;;2.40;1.80;;;;;;;;;;5018824;28;20215;-29
2023/04/15 00:28:59;;;;;;;2.30;2.03;;;;;;;;;;5037946;28;20293;-28
2023/04/15 00:31:26;;;;;;;3.13;2.30;;;;;;;;;;5023788;28;20213;-26
2023/04/15 00:33:54;;;;;;;3.47;2.17;;;;;;;;;;5030212;28;20499;-27
2023/04/15 00:36:22;;;;;;;3.77;2.40;;;;;;;;;;5033459;28;20296;-27
2023/04/15 00:38:49;;;;;;;6.20;2.30;;;;;;;;;;5028016;28;20234;-26
2023/04/15 00:41:16;;;;;;;4.23;2.70;;;;;;;;;;5019406;28;20218;-30
2023/04/15 00:43:43;;;;;;;3.60;2.10;;;;;;;;;;5025254;28;20226;-30
2023/04/15 00:46:13;;;;;;;4.17;2.60;;;;;;;;;;5025122;28;20216;-29
2023/04/15 00:48:41;;;;;;;3.67;2.17;;;;;;;;;;5027468;28;20217;-31
2023/04/15 00:51:09;;;;;;;4.13;2.40;;;;;;;;;;5035814;28;20214;-29
2023/04/15 00:53:36;;;;;;;5.07;2.27;;;;;;;;;;5027869;28;20245;-38
2023/04/15 00:56:04;;;;;;;3.23;2.23;;;;;;;;;;5025448;28;20500;-38
2023/04/15 00:58:31;;;;;;;2.73;2.00;;;;;;;;;;5021467;28;20229;-31
2023/04/15 01:00:58;;;;;;;4.83;2.20;;;;;;;;;;5021458;28;20855;-35
2023/04/15 01:05:57;;;;;;;4.13;2.40;;;;;;;;;;5021299;28;20215;-40
2023/04/15 01:08:27;;;;;;;2.30;2.10;;;;;;;;;;5011964;28;20251;-36
2023/04/15 01:10:54;;;;;;;3.27;1.90;;;;;;;;;;5015553;28;20750;-40
2023/04/15 01:13:22;;;;;;;2.97;1.87;;;;;;;;;;5014676;28;20227;-41
2023/04/15 01:15:49;;;;;;;2.90;2.10;;;;;;;;;;5003038;28;20210;-41
2023/04/15 01:18:17;;;;;;;4.47;2.00;;;;;;;;;;4996600;28;20231;-40
2023/04/15 01:20:44;;;;;;;2.13;1.93;;;;;;;;;;5006718;28;20208;-41
2023/04/15 01:23:12;;;;;;;2.47;1.73;;;;;;;;;;5006069;28;20267;-41
2023/04/15 01:25:41;;;;;;;2.20;2.00;;;;;;;;;;5003076;28;20208;-40
2023/04/15 01:28:09;;;;;;;4.63;2.20;;;;;;;;;;5000566;28;20290;-39
2023/04/15 01:30:37;;;;;;;3.67;2.00;;;;;;;;;;5005123;28;20211;-39
2023/04/15 01:33:04;;;;;;;3.33;2.33;;;;;;;;;;4996490;28;20685;-39
2023/04/15 01:35:32;;;;;;;3.40;1.90;;;;;;;;;;5006415;28;20228;-43
2023/04/15 01:38:01;;;;;;;2.67;2.20;;;;;;;;;;5005547;28;20226;-40
2023/04/15 01:40:28;;;;;;;6.80;2.50;;;;;;;;;;5005532;28;20218;-42
2023/04/15 01:42:57;;;;;;;5.43;2.30;;;;;;;;;;4999148;28;20591;-40
2023/04/15 01:45:24;;;;;;;2.90;2.53;;;;;;;;;;5001954;28;20195;-37
2023/04/15 01:47:51;;;;;;;3.30;2.27;;;;;;;;;;4995707;28;20199;-36
2023/04/15 01:50:19;;;;;;;3.73;1.80;;;;;;;;;;5006963;28;20209;-36
2023/04/15 01:52:46;;;;;;;2.70;1.70;;;;;;;;;;5006180;28;20207;-37
2023/04/15 01:55:13;;;;;;;1.90;1.53;;;;;;;;;;4998847;28;20634;-41
2023/04/15 01:57:41;;;;;;;2.67;2.03;;;;;;;;;;4997535;28;20240;-42
2023/04/15 02:00:10;;;;;;;3.10;1.93;;;;;;;;;;5006754;28;20199;-36
2023/04/15 02:02:37;;;;;;;2.87;2.40;;;;;;;;;;4996391;28;20254;-35
2023/04/15 02:05:05;;;;;;;2.33;1.80;;;;;;;;;;5000590;28;20219;-40
2023/04/15 02:07:32;;;;;;;2.83;2.10;;;;;;;;;;5007319;28;20439;-37
2023/04/15 02:09:59;;;;;;;1.93;1.80;;;;;;;;;;5001563;28;20669;-40
2023/04/15 02:12:26;;;;;;;4.70;2.40;;;;;;;;;;5006000;28;20571;-42
2023/04/15 02:14:54;;;;;;;2.30;2.00;;;;;;;;;;5007309;28;20317;-38
2023/04/15 02:17:23;;;;;;;2.97;1.60;;;;;;;;;;4993412;28;20224;-40
2023/04/15 02:19:50;;;;;;;1.57;1.43;;;;;;;;;;5000066;28;20203;-39
2023/04/15 02:22:18;;;;;;;2.93;1.73;;;;;;;;;;5006416;28;20290;-40
2023/04/15 02:24:45;;;;;;;3.40;1.77;;;;;;;;;;5003536;28;20227;-38
2023/04/15 02:27:16;;;;;;;1.93;1.73;;;;;;;;;;5002565;28;20211;-41
2023/04/15 02:29:44;;;;;;;2.10;1.90;;;;;;;;;;5006082;28;20643;-38
2023/04/15 02:32:11;;;;;;;2.10;1.90;;;;;;;;;;4999240;28;20207;-36
2023/04/15 02:34:41;;;;;;;2.00;1.90;;;;;;;;;;5007698;28;20250;-37
2023/04/15 02:37:09;;;;;;;4.93;2.23;;;;;;;;;;5010655;28;20203;-40
2023/04/15 02:39:36;;;;;;;1.90;1.80;;;;;;;;;;5011226;28;20207;-40
2023/04/15 02:42:03;;;;;;;2.40;2.20;;;;;;;;;;5000316;28;20215;-40
2023/04/15 02:44:31;;;;;;;1.63;1.53;;;;;;;;;;5007530;28;20231;-40
2023/04/15 02:46:58;;;;;;;3.57;1.90;;;;;;;;;;4999895;28;20495;-42
2023/04/15 02:49:28;;;;;;;2.00;1.73;;;;;;;;;;4999951;28;20209;-40
2023/04/15 02:51:58;;;;;;;3.37;2.00;;;;;;;;;;5009377;28;20227;-37
2023/04/15 02:54:27;;;;;;;3.50;2.13;;;;;;;;;;5007959;28;20223;-39
2023/04/15 02:56:55;;;;;;;1.90;1.80;;;;;;;;;;5002396;28;20415;-38
2023/04/15 02:59:22;;;;;;;1.87;1.77;;;;;;;;;;5009461;28;20296;-37
2023/04/15 03:01:49;;;;;;;3.23;2.00;;;;;;;;;;5001215;28;20307;-39
2023/04/15 03:04:16;;;;;;;2.83;2.10;;;;;;;;;;5004610;28;20235;-38
2023/04/15 03:06:44;;;;;;;3.33;1.77;;;;;;;;;;5009676;28;20519;-44
2023/04/15 03:09:12;;;;;;;2.30;2.10;;;;;;;;;;5009626;28;20203;-37
2023/04/15 03:11:40;;;;;;;2.17;1.90;;;;;;;;;;4999306;28;20208;-36
2023/04/15 03:14:08;;;;;;;6.30;2.17;;;;;;;;;;5006907;28;20231;-41
2023/04/15 03:16:35;;;;;;;2.30;2.10;;;;;;;;;;4999760;28;20219;-39
2023/04/15 03:19:02;;;;;;;4.23;2.37;;;;;;;;;;4997255;28;20234;-42
2023/04/15 03:21:29;;;;;;;2.63;1.87;;;;;;;;;;5008891;28;20634;-40
2023/04/15 03:23:57;;;;;;;2.40;2.20;;;;;;;;;;5002681;28;20227;-40
2023/04/15 03:26:27;;;;;;;3.30;1.93;;;;;;;;;;4991099;28;20217;-39
2023/04/15 03:28:54;;;;;;;2.60;1.97;;;;;;;;;;5001840;28;20230;-38
2023/04/15 03:31:21;;;;;;;2.83;2.00;;;;;;;;;;5000273;28;20211;-39
2023/04/15 03:33:48;;;;;;;1.93;1.73;;;;;;;;;;5008547;28;20766;-41
2023/04/15 03:36:15;;;;;;;2.73;1.97;;;;;;;;;;5009955;28;20487;-38
2023/04/15 03:38:43;;;;;;;3.23;2.13;;;;;;;;;;5008999;28;20219;-44
2023/04/15 03:41:10;;;;;;;2.80;1.80;;;;;;;;;;5007706;28;20243;-39
2023/04/15 03:43:39;;;;;;;3.77;1.80;;;;;;;;;;4995921;28;20222;-42
2023/04/15 03:46:06;;;;;;;3.37;1.90;;;;;;;;;;5005404;28;20231;-39
2023/04/15 03:48:35;;;;;;;1.97;1.77;;;;;;;;;;5003653;28;20210;-40
2023/04/15 03:51:02;;;;;;;2.00;1.50;;;;;;;;;;5011212;28;20203;-39
2023/04/15 03:53:29;;;;;;;2.90;1.87;;;;;;;;;;5009436;28;20246;-38
2023/04/15 03:55:57;;;;;;;2.20;2.00;;;;;;;;;;5013226;28;20553;-41
2023/04/15 03:58:24;;;;;;;1.80;1.60;;;;;;;;;;5011060;28;20227;-37
2023/04/15 04:00:53;;;;;;;3.53;2.17;;;;;;;;;;5006514;28;20213;-44
2023/04/15 04:03:20;;;;;;;3.53;1.90;;;;;;;;;;5001698;28;20234;-42
2023/04/15 04:05:48;;;;;;;2.00;1.90;;;;;;;;;;5009487;28;20704;-39
2023/04/15 04:08:15;;;;;;;2.13;1.93;;;;;;;;;;5009191;28;20666;-42
2023/04/15 04:10:42;;;;;;;3.07;1.93;;;;;;;;;;5002399;28;20616;-38
2023/04/15 04:13:09;;;;;;;2.00;1.63;;;;;;;;;;5008869;28;20231;-40
2023/04/15 04:15:36;;;;;;;1.70;1.57;;;;;;;;;;5008118;28;20512;-40
2023/04/15 04:18:06;;;;;;;3.27;2.10;;;;;;;;;;5001923;28;20223;-35
2023/04/15 04:20:34;;;;;;;2.00;1.90;;;;;;;;;;5006286;28;20233;-40
2023/04/15 04:23:01;;;;;;;3.53;2.00;;;;;;;;;;5009372;28;20322;-37
2023/04/15 04:25:28;;;;;;;3.33;2.00;;;;;;;;;;5008574;28;20705;-42
2023/04/15 04:27:55;;;;;;;3.20;1.90;;;;;;;;;;4999587;28;20462;-38
2023/04/15 04:30:22;;;;;;;3.57;1.83;;;;;;;;;;5004951;28;20667;-37
2023/04/15 04:32:50;;;;;;;2.00;1.63;;;;;;;;;;4997960;28;20227;-39
2023/04/15 04:35:19;;;;;;;2.03;1.83;;;;;;;;;;5008745;28;20214;-40
2023/04/15 04:37:46;;;;;;;2.40;1.90;;;;;;;;;;5010183;28;20290;-38
2023/04/15 04:40:14;;;;;;;3.87;2.00;;;;;;;;;;5006757;28;20649;-40
2023/04/15 04:42:41;;;;;;;8.73;2.30;;;;;;;;;;5010141;28;20215;-41
2023/04/15 04:45:09;;;;;;;2.13;1.87;;;;;;;;;;5013056;28;20295;-39
2023/04/15 04:47:36;;;;;;;2.03;1.60;;;;;;;;;;5008554;28;20207;-40
2023/04/15 04:50:03;;;;;;;2.07;1.80;;;;;;;;;;5012704;28;20207;-34
2023/04/15 04:52:32;;;;;;;2.90;2.30;;;;;;;;;;5012076;28;20199;-38
2023/04/15 04:54:59;;;;;;;2.50;2.17;;;;;;;;;;5005598;28;20399;-36
2023/04/15 04:57:26;;;;;;;2.10;2.00;;;;;;;;;;5004383;28;20203;-43
2023/04/15 04:59:53;;;;;;;2.90;2.30;;;;;;;;;;5011808;28;20281;-40
2023/04/15 05:02:20;;;;;;;3.27;1.97;;;;;;;;;;4999163;28;20210;-37
2023/04/15 05:04:48;;;;;;;4.53;2.03;;;;;;;;;;5003944;28;20239;-41
2023/04/15 05:07:16;;;;;;;5.03;2.47;;;;;;;;;;5011318;28;20203;-38
2023/04/15 05:09:44;;;;;;;6.27;2.60;;;;;;;;;;5008460;28;20199;-41
2023/04/15 05:12:13;;;;;;;4.67;2.60;;;;;;;;;;5007495;28;20226;-41
2023/04/15 05:14:41;;;;;;;3.23;1.77;;;;;;;;;;5011186;28;20223;-39
2023/04/15 05:17:08;;;;;;;2.67;1.80;;;;;;;;;;5009803;28;20592;-39
2023/04/15 05:19:35;;;;;;;3.43;2.03;;;;;;;;;;5012059;28;20230;-36
2023/04/15 05:22:03;;;;;;;3.13;2.40;;;;;;;;;;5011346;28;20207;-37
2023/04/15 05:24:30;;;;;;;2.73;1.90;;;;;;;;;;5012664;28;20231;-41
2023/04/15 05:27:00;;;;;;;4.50;2.20;;;;;;;;;;5000541;28;20688;-38
2023/04/15 05:29:27;;;;;;;4.53;2.20;;;;;;;;;;5007661;28;20210;-39
2023/04/15 05:31:54;;;;;;;5.03;2.80;;;;;;;;;;5006308;28;20207;-39
2023/04/15 05:34:21;;;;;;;8.40;3.30;;;;;;;;;;5011255;28;20229;-41
2023/04/15 05:36:48;;;;;;;2.83;2.10;;;;;;;;;;5010496;28;20728;-39
2023/04/15 05:39:16;;;;;;;2.93;2.20;;;;;;;;;;5011606;28;20227;-39
2023/04/15 05:41:43;;;;;;;2.53;1.90;;;;;;;;;;4999895;28;20549;-39
2023/04/15 05:44:11;;;;;;;3.73;2.40;;;;;;;;;;5010809;28;20230;-35
2023/04/15 05:46:38;;;;;;;3.60;2.37;;;;;;;;;;5003315;28;20211;-37
2023/04/15 05:49:06;;;;;;;2.50;2.27;;;;;;;;;;4999057;28;20261;-42
2023/04/15 05:51:33;;;;;;;4.73;2.10;;;;;;;;;;5010643;28;20195;-38
2023/04/15 05:54:00;;;;;;;3.83;2.67;;;;;;;;;;5009776;28;20302;-40
2023/04/15 05:56:27;;;;;;;5.30;2.20;;;;;;;;;;5004426;28;20200;-42
2023/04/15 05:58:55;;;;;;;6.17;3.57;;;;;;;;;;5007390;28;20230;-44
2023/04/15 06:01:24;;;;;;;3.00;2.60;;;;;;;;;;5000648;28;20275;-44
2023/04/15 06:03:51;;;;;;;5.77;3.17;;;;;;;;;;5003042;28;20297;-37
2023/04/15 06:06:19;;;;;;;3.93;2.67;;;;;;;;;;5010432;28;20194;-36
2023/04/15 06:08:46;;;;;;;3.93;2.57;;;;;;;;;;5004189;28;20211;-35
2023/04/15 06:11:13;;;;;;;3.87;2.90;;;;;;;;;;5009966;28;20546;-42
2023/04/15 06:13:40;;;;;;;2.40;2.20;;;;;;;;;;5009792;28;20230;-38
2023/04/15 06:16:08;;;;;;;3.87;2.63;;;;;;;;;;5005145;28;20212;-40
2023/04/15 06:18:36;;;;;;;2.60;2.37;;;;;;;;;;5002498;28;20639;-40
2023/04/15 06:21:03;;;;;;;2.80;2.30;;;;;;;;;;5009771;28;20200;-41
2023/04/15 06:23:30;;;;;;;2.67;2.47;;;;;;;;;;5005888;28;20708;-38
2023/04/15 06:25:57;;;;;;;3.63;2.20;;;;;;;;;;5004411;28;20207;-39
2023/04/15 06:28:25;;;;;;;3.63;2.20;;;;;;;;;;5009566;28;20680;-38
2023/04/15 06:30:53;;;;;;;4.20;2.47;;;;;;;;;;5005453;28;20298;-36
2023/04/15 06:33:21;;;;;;;3.33;2.70;;;;;;;;;;5007299;28;20231;-43
2023/04/15 06:35:49;;;;;;;4.23;2.50;;;;;;;;;;5009189;28;20208;-42
2023/04/15 06:38:17;;;;;;;2.73;2.50;;;;;;;;;;5010106;28;20679;-39
2023/04/15 06:40:44;;;;;;;4.50;2.60;;;;;;;;;;5004166;28;20255;-39
2023/04/15 06:43:11;;;;;;;4.30;2.60;;;;;;;;;;5004522;28;20277;-41
2023/04/15 06:45:39;;;;;;;2.50;2.30;;;;;;;;;;5008624;28;20207;-44
2023/04/15 06:48:06;;;;;;;3.23;2.70;;;;;;;;;;4993099;28;20204;-36
2023/04/15 06:50:34;;;;;;;4.40;2.67;;;;;;;;;;5006681;28;20195;-40
2023/04/15 06:53:03;;;;;;;3.40;2.43;;;;;;;;;;5006939;28;20227;-38
2023/04/15 06:55:32;;;;;;;5.13;2.87;;;;;;;;;;5001056;28;20207;-41
2023/04/15 06:58:00;;;;;;;3.83;2.50;;;;;;;;;;5009279;28;20199;-38
2023/04/15 07:00:28;;;;;;;3.63;2.80;;;;;;;;;;5006354;28;20278;-39
2023/04/15 07:02:55;;;;;;;2.60;2.40;;;;;;;;;;4994817;28;20227;-38
2023/04/15 07:05:24;;;;;;;5.67;2.97;;;;;;;;;;5006893;28;20302;-41
2023/04/15 07:07:51;;;;;;;4.07;2.53;;;;;;;;;;4989770;28;20235;-42
2023/04/15 07:10:20;;;;;;;4.37;3.00;;;;;;;;;;4996927;28;20199;-38
2023/04/15 07:12:49;;;;;;;3.63;2.80;;;;;;;;;;5004922;28;20203;-36
2023/04/15 07:15:16;;;;;;;2.83;2.43;;;;;;;;;;5009083;28;20196;-38
2023/04/15 07:17:44;;;;;;;5.43;2.83;;;;;;;;;;5003194;28;20207;-42
2023/04/15 07:20:11;;;;;;;2.60;2.40;;;;;;;;;;5003932;28;20246;-37
2023/04/15 07:22:40;;;;;;;2.80;2.60;;;;;;;;;;5013230;28;20195;-42
2023/04/15 07:25:08;;;;;;;4.60;2.83;;;;;;;;;;5008554;28;20302;-38
2023/04/15 07:27:36;;;;;;;5.30;2.43;;;;;;;;;;5011293;28;20676;-34
2023/04/15 07:30:03;;;;;;;2.77;2.50;;;;;;;;;;5013818;28;20203;-41
2023/04/15 07:32:30;;;;;;;4.13;2.57;;;;;;;;;;4999550;28;20204;-44
2023/04/15 07:34:58;;;;;;;3.10;2.80;;;;;;;;;;5001219;28;20555;-41
2023/04/15 07:37:27;;;;;;;4.87;2.67;;;;;;;;;;5013975;28;20294;-41
2023/04/15 07:39:54;;;;;;;4.63;2.90;;;;;;;;;;4993971;28;20551;-40
2023/04/15 07:42:21;;;;;;;3.70;2.50;;;;;;;;;;4999015;28;20627;-35
2023/04/15 07:44:50;;;;;;;2.77;2.57;;;;;;;;;;5004621;28;20231;-40
2023/04/15 07:47:17;;;;;;;3.43;2.67;;;;;;;;;;5006303;28;20217;-37
2023/04/15 07:49:46;;;;;;;6.03;3.13;;;;;;;;;;5011264;28;20577;-41
2023/04/15 07:52:13;;;;;;;6.90;3.30;;;;;;;;;;5011568;28;20246;-34
2023/04/15 07:54:40;;;;;;;4.57;2.87;;;;;;;;;;5006483;28;20231;-40
2023/04/15 07:57:07;;;;;;;6.30;2.50;;;;;;;;;;5004426;28;20218;-41
2023/04/15 07:59:34;;;;;;;5.57;3.70;;;;;;;;;;5011480;28;20223;-39
2023/04/15 08:02:03;;;;;;;6.47;3.07;;;;;;;;;;5007731;28;20208;-39
2023/04/15 08:04:31;;;;;;;4.83;3.30;;;;;;;;;;5012399;28;20242;-39
2023/04/15 08:06:58;;;;;;;4.00;3.07;;;;;;;;;;5011922;28;20247;-41
2023/04/15 08:09:25;;;;;;;3.40;2.63;;;;;;;;;;5005727;28;20497;-38
2023/04/15 08:11:53;;;;;;;5.03;2.87;;;;;;;;;;5002477;28;20612;-41
2023/04/15 08:14:21;;;;;;;4.03;2.80;;;;;;;;;;5012275;28;20712;-41
2023/04/15 08:16:48;;;;;;;4.33;2.87;;;;;;;;;;5006082;28;20206;-41
2023/04/15 08:19:16;;;;;;;4.57;2.63;;;;;;;;;;5002240;28;20545;-38
2023/04/15 08:21:43;;;;;;;5.87;3.23;;;;;;;;;;5005583;28;20218;-42
2023/04/15 08:24:11;;;;;;;4.13;3.23;;;;;;;;;;5008452;28;20231;-43
2023/04/15 08:26:39;;;;;;;4.50;2.50;;;;;;;;;;5010336;28;20207;-43
2023/04/15 08:29:06;;;;;;;5.13;3.07;;;;;;;;;;5011487;28;20207;-40
2023/04/15 08:31:43;;;;;;;5.37;2.47;;;;;;;;;;4998345;28;20882;-38
2023/04/15 08:34:12;;;;;;;5.03;2.83;;;;;;;;;;5000569;28;20231;-42
2023/04/15 08:36:40;;;;;;;2.83;2.40;;;;;;;;;;5011254;28;20203;-37
2023/04/15 08:39:07;;;;;;;9.20;2.97;;;;;;;;;;5009504;28;20207;-37
2023/04/15 08:41:38;;;;;;;4.13;2.77;;;;;;;;;;4998440;28;20215;-37
2023/04/15 08:44:06;;;;;;;5.93;2.47;;;;;;;;;;5005190;28;20227;-38
2023/04/15 08:46:33;;;;;;;5.20;2.57;;;;;;;;;;5005298;28;20674;-42
2023/04/15 08:49:02;;;;;;;4.23;2.43;;;;;;;;;;5004429;28;20207;-40
2023/04/15 08:51:29;;;;;;;4.40;2.70;;;;;;;;;;5010859;28;20203;-42
2023/04/15 08:53:58;;;;;;;8.10;5.30;;;;;;;;;;5002104;28;20223;-42
2023/04/15 08:56:28;;;;;;;5.67;3.60;;;;;;;;;;5010248;28;20218;-39
2023/04/15 08:58:55;;;;;;;5.03;3.60;;;;;;;;;;5009351;28;20200;-39
2023/04/15 09:01:23;;;;;;;4.43;3.00;;;;;;;;;;4997730;28;20220;-39
2023/04/15 09:03:50;;;;;;;3.33;2.90;;;;;;;;;;5004229;28;20255;-44
2023/04/15 09:06:18;;;;;;;4.63;2.90;;;;;;;;;;5011094;28;20214;-41
2023/04/15 09:08:45;;;;;;;5.33;3.17;;;;;;;;;;5010479;28;20204;-39
2023/04/15 09:11:14;;;;;;;3.87;2.57;;;;;;;;;;5004435;28;20208;-40
2023/04/15 09:13:41;;;;;;;3.07;2.67;;;;;;;;;;5012009;28;20224;-41
2023/04/15 09:16:08;;;;;;;5.40;2.97;;;;;;;;;;5010072;28;20204;-41
2023/04/15 09:18:36;;;;;;;4.27;2.70;;;;;;;;;;5000838;28;20214;-39
2023/04/15 09:21:07;;;;;;;4.57;2.53;;;;;;;;;;5011446;28;20711;-38
2023/04/15 09:23:35;;;;;;;2.93;2.30;;;;;;;;;;5006634;28;20289;-40
2023/04/15 09:26:02;;;;;;;4.87;2.70;;;;;;;;;;5007531;28;20601;-41
2023/04/15 09:28:32;;;;;;;6.20;2.70;;;;;;;;;;4999808;28;20211;-42
2023/04/15 09:31:01;;;;;;;3.33;2.17;;;;;;;;;;5009579;28;20211;-40
2023/04/15 09:33:30;;;;;;;5.37;3.20;;;;;;;;;;5002309;28;20263;-44
2023/04/15 09:35:59;;;;;;;3.20;2.50;;;;;;;;;;5005792;28;20209;-37
2023/04/15 09:38:28;;;;;;;5.10;2.00;;;;;;;;;;5008384;28;20216;-39
2023/04/15 09:40:57;;;;;;;3.87;2.50;;;;;;;;;;5003883;28;20215;-37
2023/04/15 09:43:24;;;;;;;6.70;2.67;;;;;;;;;;5010238;28;20238;-41
2023/04/15 09:45:54;;;;;;;5.40;2.33;;;;;;;;;;5008376;28;20207;-36
2023/04/15 09:48:25;;;;;;;3.87;2.40;;;;;;;;;;4997316;28;20244;-41
2023/04/15 09:50:53;;;;;;;3.53;2.30;;;;;;;;;;5001702;28;20192;-35
2023/04/15 09:53:21;;;;;;;2.53;1.57;;;;;;;;;;5009831;28;20246;-42
2023/04/15 09:55:51;;;;;;;3.90;1.70;;;;;;;;;;5009773;28;20724;-41
2023/04/15 09:58:19;;;;;;;3.93;1.97;;;;;;;;;;4998668;28;20207;-37
2023/04/15 10:00:47;;;;;;;3.93;1.67;;;;;;;;;;5004196;28;20219;-41
2023/04/15 10:03:19;;;;;;;3.43;1.70;;;;;;;;;;5004383;28;20238;-40
2023/04/15 10:05:47;;;;;;;4.23;2.30;;;;;;;;;;5003610;28;20207;-41
2023/04/15 10:08:16;;;;;;;3.37;2.23;;;;;;;;;;5009532;28;20225;-38
2023/04/15 10:10:46;;;;;;;2.57;2.10;;;;;;;;;;5003979;28;20210;-37
2023/04/15 10:13:14;;;;;;;4.17;1.33;;;;;;;;;;5006093;28;20223;-33
2023/04/15 10:15:44;;;;;;;3.10;2.00;;;;;;;;;;5008899;28;20425;-42
2023/04/15 10:18:12;;;;;;;3.17;1.90;;;;;;;;;;4999053;28;20262;-35
2023/04/15 10:20:41;;;;;;;4.70;1.67;;;;;;;;;;5010502;28;20216;-37
2023/04/15 10:23:09;;;;;;;2.87;1.40;;;;;;;;;;5012089;28;20225;-41
2023/04/15 10:25:37;;;;;;;1.83;1.57;;;;;;;;;;5009370;28;20203;-41
2023/04/15 10:28:04;;;;;;;3.03;1.43;;;;;;;;;;4996126;28;20205;-42
2023/04/15 10:30:32;;;;;;;3.03;1.70;;;;;;;;;;5009471;28;20204;-38
2023/04/15 10:32:59;;;;;;;4.17;1.43;;;;;;;;;;5003367;28;20235;-37
2023/04/15 10:35:27;;;;;;;2.83;1.73;;;;;;;;;;5001324;28;20218;-40
2023/04/15 10:38:02;;;;;;;3.20;1.50;;;;;;;;;;5009816;28;20223;-39
2023/04/15 10:40:30;;;;;;;3.17;1.60;;;;;;;;;;5001318;28;20222;-40
2023/04/15 10:42:58;;;;;;;6.63;1.90;;;;;;;;;;5010147;28;20238;-38
2023/04/15 10:45:27;;;;;;;1.80;1.70;;;;;;;;;;5008707;28;20294;-40
2023/04/15 10:47:56;;;;;;;2.30;1.73;;;;;;;;;;5002229;28;20417;-37
2023/04/15 10:50:28;;;;;;;3.53;1.70;;;;;;;;;;5009165;28;20237;-39
2023/04/15 10:52:57;;;;;;;5.83;1.87;;;;;;;;;;5002422;28;20696;-38
2023/04/15 10:55:27;;;;;;;6.17;2.70;;;;;;;;;;5010893;28;20207;-36
2023/04/15 10:57:55;;;;;;;3.03;2.10;;;;;;;;;;5012304;28;20203;-41
2023/04/15 11:00:25;;;;;;;2.63;2.00;;;;;;;;;;5015833;28;20314;-40
2023/04/15 11:02:54;;;;;;;3.23;2.17;;;;;;;;;;4999184;28;20222;-37
2023/04/15 11:05:21;;;;;;;7.57;2.47;;;;;;;;;;5010361;28;20578;-36
2023/04/15 11:07:50;;;;;;;2.23;1.80;;;;;;;;;;5016400;28;20207;-37
2023/04/15 11:10:41;;;;;;;4.37;2.20;;;;;;;;;;5009703;28;20219;-41
2023/04/15 11:13:17;;;;;;;2.97;2.13;;;;;;;;;;4990082;28;20527;-36
2023/04/15 11:15:45;;;;;;;5.27;2.10;;;;;;;;;;5014451;28;20230;-45
2023/04/15 11:18:13;;;;;;;2.93;2.10;;;;;;;;;;5004377;28;20207;-44
2023/04/15 11:20:40;;;;;;;5.53;2.70;;;;;;;;;;5014810;28;20216;-42
2023/04/15 11:23:08;;;;;;;4.07;2.90;;;;;;;;;;5011257;28;20258;-42
2023/04/15 11:25:37;;;;;;;4.10;2.67;;;;;;;;;;5005679;28;20208;-41
2023/04/15 11:28:04;;;;;;;4.30;2.80;;;;;;;;;;5004449;28;20212;-41
2023/04/15 11:30:33;;;;;;;5.80;2.37;;;;;;;;;;5012280;28;20218;-40
2023/04/15 11:33:02;;;;;;;2.60;2.37;;;;;;;;;;4998914;28;20609;-37
2023/04/15 11:35:29;;;;;;;5.73;2.23;;;;;;;;;;5012839;28;20207;-40
2023/04/15 11:37:57;;;;;;;3.13;1.80;;;;;;;;;;5016164;28;20543;-35
2023/04/15 11:40:25;;;;;;;3.77;1.60;;;;;;;;;;5008710;28;20306;-41
2023/04/15 11:43:04;;;;;;;3.33;2.40;;;;;;;;;;5006481;28;20223;-39
2023/04/15 11:45:33;;;;;;;3.47;2.23;;;;;;;;;;5009750;28;20208;-40
2023/04/15 11:48:07;;;;;;;3.37;2.23;;;;;;;;;;5008989;28;20298;-41
2023/04/15 11:50:35;;;;;;;3.57;2.70;;;;;;;;;;5014278;28;20203;-38
2023/04/15 11:53:03;;;;;;;3.90;2.40;;;;;;;;;;5014786;28;20229;-43
2023/04/15 11:55:30;;;;;;;3.37;2.03;;;;;;;;;;5011520;28;20204;-39
2023/04/15 11:58:07;;;;;;;3.03;2.10;;;;;;;;;;5015112;28;20214;-36
2023/04/15 12:00:35;;;;;;;3.93;2.33;;;;;;;;;;5006096;28;20216;-38
2023/04/15 12:03:12;;;;;;;4.27;2.50;;;;;;;;;;5002366;28;20235;-43
2023/04/15 12:05:54;;;;;;;3.40;2.20;;;;;;;;;;5008470;28;20238;-39
2023/04/15 12:08:21;;;;;;;2.73;2.27;;;;;;;;;;5013274;28;20218;-41
2023/04/15 12:10:48;;;;;;;4.73;2.10;;;;;;;;;;5008135;28;20210;-42
2023/04/15 12:13:15;;;;;;;3.27;1.80;;;;;;;;;;5014356;28;20273;-42
2023/04/15 12:15:44;;;;;;;5.90;2.10;;;;;;;;;;5005158;28;20227;-40
2023/04/15 12:18:17;;;;;;;2.50;2.30;;;;;;;;;;5001628;28;20696;-40
2023/04/15 12:20:46;;;;;;;4.50;2.47;;;;;;;;;;5009578;28;20208;-41
2023/04/15 12:23:20;;;;;;;4.03;2.67;;;;;;;;;;5010885;28;20223;-40
2023/04/15 12:25:52;;;;;;;3.83;2.53;;;;;;;;;;5013401;28;20533;-36
2023/04/15 12:28:19;;;;;;;3.73;2.70;;;;;;;;;;5002448;28;20643;-41
2023/04/15 12:30:51;;;;;;;3.57;2.60;;;;;;;;;;5007719;28;20238;-38
2023/04/15 12:33:18;;;;;;;3.03;2.57;;;;;;;;;;5007358;28;20234;-41
2023/04/15 12:35:45;;;;;;;7.50;3.00;;;;;;;;;;5013237;28;20208;-40
2023/04/15 12:38:12;;;;;;;3.23;2.50;;;;;;;;;;5010074;28;20646;-44
2023/04/15 12:40:39;;;;;;;4.77;2.77;;;;;;;;;;5003545;28;20211;-41
2023/04/15 12:43:06;;;;;;;2.47;2.17;;;;;;;;;;5014119;28;20598;-39
2023/04/15 12:45:34;;;;;;;3.97;3.13;;;;;;;;;;5014126;28;20214;-39
2023/04/15 12:48:02;;;;;;;5.00;2.30;;;;;;;;;;5009933;28;20214;-43
2023/04/15 12:50:29;;;;;;;5.70;2.30;;;;;;;;;;5013751;28;20297;-37
2023/04/15 12:52:59;;;;;;;5.57;1.97;;;;;;;;;;5009662;28;20223;-40
2023/04/15 12:55:26;;;;;;;4.13;2.30;;;;;;;;;;5005993;28;20236;-40
2023/04/15 12:57:53;;;;;;;2.67;2.20;;;;;;;;;;5007852;28;20204;-38
2023/04/15 13:00:21;;;;;;;7.57;2.50;;;;;;;;;;5010240;28;20250;-39
2023/04/15 13:02:48;;;;;;;3.73;2.37;;;;;;;;;;5006440;28;20251;-42
2023/04/15 13:05:16;;;;;;;1.87;1.60;;;;;;;;;;5003639;28;20225;-41
2023/04/15 13:07:43;;;;;;;3.53;1.70;;;;;;;;;;5013067;28;20210;-44
2023/04/15 13:10:11;;;;;;;1.80;1.10;;;;;;;;;;5008937;28;20208;-39
2023/04/15 13:12:38;;;;;;;3.23;1.83;;;;;;;;;;5007201;28;20306;-42
2023/04/15 13:15:05;;;;;;;1.80;1.07;;;;;;;;;;5008249;28;20209;-35
2023/04/15 13:17:33;;;;;;;4.50;2.00;;;;;;;;;;4996657;28;20212;-39
2023/04/15 13:20:00;;;;;;;1.50;1.33;;;;;;;;;;5009450;28;20213;-44
2023/04/15 13:22:28;;;;;;;1.60;1.40;;;;;;;;;;5012816;28;20223;-40
2023/04/15 13:24:55;;;;;;;3.37;1.60;;;;;;;;;;5008511;28;20207;-42
2023/04/15 13:27:23;;;;;;;2.20;2.00;;;;;;;;;;5013525;28;20218;-41
2023/04/15 13:29:50;;;;;;;1.93;1.70;;;;;;;;;;5000180;28;20290;-36
2023/04/15 13:32:17;;;;;;;2.30;1.73;;;;;;;;;;5005406;28;20200;-41
2023/04/15 13:34:44;;;;;;;3.17;1.40;;;;;;;;;;5010971;28;20227;-39
2023/04/15 13:37:11;;;;;;;3.93;1.50;;;;;;;;;;5013401;28;20303;-37
2023/04/15 13:39:40;;;;;;;2.33;1.17;;;;;;;;;;5001824;28;20220;-41
2023/04/15 13:42:07;;;;;;;2.23;1.20;;;;;;;;;;5004039;28;20889;-39
2023/04/15 13:44:34;;;;;;;3.27;1.67;;;;;;;;;;5011761;28;20227;-43
2023/04/15 13:47:02;;;;;;;2.27;1.67;;;;;;;;;;5007444;28;20268;-37
2023/04/15 13:49:29;;;;;;;0.60;0.60;;;;;;;;;;5009874;28;20211;-40
2023/04/15 13:51:56;;;;;;;2.63;1.10;;;;;;;;;;5013011;28;20213;-39
2023/04/15 13:54:23;;;;;;;1.07;0.93;;;;;;;;;;5009611;28;20238;-43
2023/04/15 13:56:53;;;;;;;1.83;1.00;;;;;;;;;;5009527;28;20211;-44
2023/04/15 13:59:20;;;;;;;2.90;1.20;;;;;;;;;;5013399;28;20207;-40
2023/04/15 14:01:47;;;;;;;1.00;0.90;;;;;;;;;;5004353;28;20219;-42
2023/04/15 14:04:14;;;;;;;0.97;0.90;;;;;;;;;;5012635;28;20235;-37
2023/04/15 14:06:41;;;;;;;1.67;1.30;;;;;;;;;;5011277;28;20214;-37
2023/04/15 14:09:08;;;;;;;1.30;1.00;;;;;;;;;;5004597;28;20212;-40
2023/04/15 14:11:35;;;;;;;2.53;0.77;;;;;;;;;;5011958;28;20207;-42
2023/04/15 14:14:04;;;;;;;1.20;0.80;;;;;;;;;;5013483;28;20227;-42
2023/04/15 14:16:32;;;;;;;1.03;1.03;;;;;;;;;;5008357;28;20211;-34
2023/04/15 14:19:00;;;;;;;0.90;0.80;;;;;;;;;;5006807;28;20204;-36
2023/04/15 14:21:28;;;;;;;1.53;1.10;;;;;;;;;;5012627;28;20231;-42
2023/04/15 14:23:55;;;;;;;0.30;0.30;;;;;;;;;;5004530;28;20226;-41
2023/04/15 14:26:23;;;;;;;3.00;2.80;;;;;;;;;;5007003;28;20215;-37
2023/04/15 14:28:50;;;;;;;1.30;1.23;;;;;;;;;;5007036;28;20215;-39
2023/04/15 14:31:19;;;;;;;1.67;0.80;;;;;;;;;;5004471;28;20241;-42
2023/04/15 14:33:46;;;;;;;2.33;0.87;;;;;;;;;;5008069;28;20233;-39
2023/04/15 14:36:13;;;;;;;0.67;0.67;;;;;;;;;;5011717;28;20203;-40
2023/04/15 14:38:40;;;;;;;3.90;1.00;;;;;;;;;;5012864;28;20203;-40
2023/04/15 14:41:08;;;;;;;2.60;0.70;;;;;;;;;;5007455;28;20220;-41
2023/04/15 14:43:36;;;;;;;3.23;1.13;;;;;;;;;;4995736;28;20227;-40
2023/04/15 14:46:03;;;;;;;0.83;0.70;;;;;;;;;;5009515;28;20330;-43
2023/04/15 14:48:31;;;;;;;0.80;0.80;;;;;;;;;;5009812;28;20215;-38
2023/04/15 14:51:00;;;;;;;1.10;0.90;;;;;;;;;;5011716;28;20234;-42